Time;durP1;ratioP1;P1;durP2;ratioP2;P2;SDS_P1;SDS_P2;PMS_P1;PMS_P2;Temp;Humidity;BMP_temperature;BMP_pressure;BME280_temperature;BME280_humidity;BME280_pressure;Samples;Min_cycle;Max_cycle;Signal;HPM_P1;HPM_P2
2022/05/01 00:00:11;;;;;;;6.03;4.20;;;;;;;12.82;100.00;100723.44;5049737;28;20736;-76
2022/05/01 00:02:37;;;;;;;6.18;4.07;;;;;;;12.81;100.00;100700.84;5050251;28;20619;-76
2022/05/01 00:05:07;;;;;;;6.35;4.57;;;;;;;12.92;100.00;100708.00;5056170;28;20210;-77
2022/05/01 00:07:33;;;;;;;7.10;4.78;;;;;;;12.80;100.00;100728.63;5057097;28;20563;-76
2022/05/01 00:10:00;;;;;;;5.55;4.25;;;;;;;12.66;100.00;100713.66;5057343;28;20203;-77
2022/05/01 00:12:29;;;;;;;4.82;4.30;;;;;;;12.41;100.00;100653.38;5031724;28;20222;-76
2022/05/01 00:14:56;;;;;;;11.18;4.90;;;;;;;12.69;100.00;100724.09;5045469;28;20199;-76
2022/05/01 00:17:22;;;;;;;5.60;4.70;;;;;;;12.78;100.00;100719.03;5050745;28;20238;-76
2022/05/01 00:19:49;;;;;;;4.93;4.45;;;;;;;12.67;100.00;100718.84;5051131;28;20199;-76
2022/05/01 00:22:17;;;;;;;6.10;4.93;;;;;;;12.60;100.00;100692.69;5050533;28;20195;-76
2022/05/01 00:24:44;;;;;;;9.73;4.82;;;;;;;12.68;100.00;100714.53;5050888;28;20199;-76
2022/05/01 00:27:12;;;;;;;6.85;5.05;;;;;;;12.57;100.00;100697.88;5050608;28;20199;-76
2022/05/01 00:29:39;;;;;;;6.70;4.57;;;;;;;12.67;100.00;100710.16;5049739;28;20196;-76
2022/05/01 00:32:07;;;;;;;6.93;4.88;;;;;;;12.45;100.00;100658.66;5049796;28;20203;-76
2022/05/01 00:37:19;;;;;;;7.93;4.50;;;;;;;12.23;100.00;100634.91;5053436;28;20288;-75
2022/05/01 00:39:47;;;;;;;8.05;4.60;;;;;;;12.24;100.00;100665.22;5053323;28;20217;-76
2022/05/01 00:42:13;;;;;;;5.60;4.97;;;;;;;12.36;100.00;100691.47;5054222;28;20191;-76
2022/05/01 00:44:40;;;;;;;6.20;4.72;;;;;;;12.33;100.00;100707.00;5054648;28;20196;-76
2022/05/01 00:47:07;;;;;;;5.13;4.57;;;;;;;12.21;100.00;100705.91;5054163;28;20637;-76
2022/05/01 00:49:34;;;;;;;5.63;5.10;;;;;;;11.63;100.00;100589.59;5054000;28;20261;-75
2022/05/01 00:52:07;;;;;;;8.13;4.75;;;;;;;12.18;100.00;100674.66;5053489;28;20199;-75
2022/05/01 00:54:37;;;;;;;7.30;5.50;;;;;;;12.07;100.00;100627.66;5053366;28;20231;-76
2022/05/01 00:57:06;;;;;;;5.45;4.85;;;;;;;12.49;100.00;100694.25;5053923;28;20196;-75
2022/05/01 00:59:34;;;;;;;6.78;5.57;;;;;;;12.27;100.00;100685.22;5053465;28;20214;-75
2022/05/01 01:02:02;;;;;;;10.77;5.72;;;;;;;12.25;100.00;100700.78;5053583;28;20204;-75
2022/05/01 01:04:29;;;;;;;6.93;5.43;;;;;;;12.18;100.00;100700.66;5053673;28;20196;-75
2022/05/01 01:06:55;;;;;;;9.85;5.82;;;;;;;12.09;100.00;100696.16;5053680;28;20210;-76
2022/05/01 01:09:22;;;;;;;6.43;5.53;;;;;;;11.99;100.00;100673.44;5053665;28;20199;-76
2022/05/01 01:12:53;;;;;;;7.60;5.63;;;;;;;12.22;100.00;100702.47;5053455;28;20214;-76
2022/05/01 01:14:42;;;;;;;9.95;5.65;;;;;;;11.95;100.00;100650.81;5053515;28;20841;-75
2022/05/01 01:17:10;;;;;;;9.68;6.82;;;;;;;12.27;100.00;100696.47;5053548;28;20677;-76
2022/05/01 01:19:36;;;;;;;6.82;6.13;;;;;;;12.12;100.00;100680.63;5053508;28;20210;-76
2022/05/01 01:22:09;;;;;;;10.65;6.22;;;;;;;12.10;100.00;100705.69;5053076;28;20210;-75
2022/05/01 01:24:38;;;;;;;7.45;6.60;;;;;;;12.00;100.00;100693.38;5053287;28;20238;-75
2022/05/01 01:27:06;;;;;;;8.95;6.78;;;;;;;12.06;100.00;100703.88;5037096;28;20195;-75
2022/05/01 01:32:19;;;;;;;7.57;5.70;;;;;;;12.00;100.00;100708.97;5053115;28;20206;-75
2022/05/01 01:34:50;;;;;;;8.98;6.80;;;;;;;12.00;100.00;100713.28;5052945;28;20204;-75
2022/05/01 01:37:21;;;;;;;7.40;6.63;;;;;;;11.96;100.00;100709.75;5053317;28;20225;-75
2022/05/01 01:39:49;;;;;;;7.88;6.85;;;;;;;11.90;100.00;100717.44;5053003;28;20284;-75
2022/05/01 01:42:17;;;;;;;8.48;6.63;;;;;;;11.84;100.00;100725.13;5034294;28;20195;-75
2022/05/01 01:44:44;;;;;;;8.73;6.63;;;;;;;11.79;100.00;100712.03;5052952;28;20203;-75
2022/05/01 01:47:14;;;;;;;8.20;7.18;;;;;;;11.67;100.00;100700.47;5052292;28;20203;-75
2022/05/01 01:49:40;;;;;;;6.88;6.15;;;;;;;11.76;100.00;100737.97;5052622;28;20207;-76
2022/05/01 01:52:07;;;;;;;10.65;6.97;;;;;;;11.72;100.00;100736.13;5052662;28;20204;-75
2022/05/01 01:54:36;;;;;;;10.18;6.72;;;;;;;11.72;100.00;100730.06;5052689;28;20231;-75
2022/05/01 01:57:03;;;;;;;9.05;6.80;;;;;;;11.70;100.00;100732.56;5052550;28;20195;-75
2022/05/01 01:59:29;;;;;;;7.00;5.93;;;;;;;11.05;100.00;100632.53;5041536;28;20188;-75
2022/05/01 02:01:56;;;;;;;9.02;6.25;;;;;;;11.70;100.00;100731.72;5052735;28;20692;-75
2022/05/01 02:04:24;;;;;;;6.93;6.07;;;;;;;11.70;100.00;100721.34;5052505;28;20646;-75
2022/05/01 02:06:51;;;;;;;7.65;6.70;;;;;;;11.62;100.00;100694.31;5051916;28;20279;-75
2022/05/01 02:09:18;;;;;;;6.93;6.25;;;;;;;11.56;100.00;100691.59;5052405;28;20208;-75
2022/05/01 02:11:46;;;;;;;9.98;7.10;;;;;;;11.78;100.00;100720.66;5051800;28;20227;-75
2022/05/01 02:14:13;;;;;;;10.40;6.70;;;;;;;11.38;100.00;100700.75;5052434;28;20223;-75
2022/05/01 02:16:40;;;;;;;9.88;7.10;;;;;;;11.39;100.00;100712.88;5052255;28;20203;-75
2022/05/01 02:19:07;;;;;;;7.88;7.00;;;;;;;11.25;100.00;100701.31;5052070;28;20731;-76
2022/05/01 02:21:36;;;;;;;9.45;7.85;;;;;;;11.35;100.00;100728.34;5051822;28;20218;-75
2022/05/01 02:24:06;;;;;;;12.57;8.25;;;;;;;11.06;100.00;100680.97;5052444;28;20552;-75
2022/05/01 02:26:35;;;;;;;10.55;8.35;;;;;;;11.12;100.00;100714.88;5051983;28;20572;-75
2022/05/01 02:29:04;;;;;;;11.00;7.80;;;;;;;11.09;100.00;100688.88;5034172;28;20671;-75
2022/05/01 02:31:32;;;;;;;9.75;7.60;;;;;;;11.21;100.00;100727.16;5051624;28;20199;-75
2022/05/01 02:33:59;;;;;;;11.90;8.05;;;;;;;11.25;100.00;100703.91;5051906;28;20276;-75
2022/05/01 02:36:25;;;;;;;11.05;7.50;;;;;;;11.37;100.00;100724.09;5051530;28;20199;-75
2022/05/01 02:38:52;;;;;;;10.15;7.50;;;;;;;11.12;100.00;100680.25;5052463;28;20203;-75
2022/05/01 02:41:20;;;;;;;8.95;7.05;;;;;;;11.40;100.00;100719.84;5052172;28;20207;-75
2022/05/01 02:43:47;;;;;;;11.15;7.82;;;;;;;11.35;100.00;100710.19;5051773;28;20283;-75
2022/05/01 02:46:15;;;;;;;13.60;8.93;;;;;;;11.27;100.00;100714.34;5051655;28;20235;-75
2022/05/01 02:48:42;;;;;;;12.25;8.77;;;;;;;11.22;100.00;100711.66;5051770;28;20210;-75
2022/05/01 02:51:10;;;;;;;15.50;9.45;;;;;;;11.38;100.00;100726.69;5051538;28;20191;-75
2022/05/01 02:53:38;;;;;;;12.23;8.18;;;;;;;11.39;100.00;100718.06;5052102;28;20224;-76
2022/05/01 02:56:05;;;;;;;11.48;8.32;;;;;;;11.14;100.00;100692.41;5051285;28;20227;-75
2022/05/01 02:58:32;;;;;;;12.15;6.97;;;;;;;11.35;100.00;100731.84;5051363;28;20192;-75
2022/05/01 03:01:00;;;;;;;9.10;7.53;;;;;;;11.32;100.00;100721.38;5051257;28;20199;-75
2022/05/01 03:03:29;;;;;;;8.73;7.70;;;;;;;11.28;100.00;100716.97;5051421;28;20262;-75
2022/05/01 03:05:57;;;;;;;9.63;7.90;;;;;;;11.08;100.00;100715.66;5051418;28;20678;-74
2022/05/01 03:08:23;;;;;;;10.52;8.48;;;;;;;11.31;100.00;100734.31;5050108;28;20199;-75
2022/05/01 03:10:50;;;;;;;10.18;8.52;;;;;;;11.32;100.00;100747.34;5016161;28;20195;-75
2022/05/01 03:13:18;;;;;;;11.32;8.23;;;;;;;11.20;100.00;100722.84;5015684;28;20231;-75
2022/05/01 03:15:46;;;;;;;10.23;8.43;;;;;;;11.11;100.00;100714.84;5048965;28;20293;-75
2022/05/01 03:23:42;;;;;;;11.80;7.57;;;;;;;10.98;100.00;100700.72;5050761;28;20334;-75
2022/05/01 03:26:09;;;;;;;13.55;8.95;;;;;;;11.22;100.00;100741.91;5051213;28;20737;-75
2022/05/01 03:28:36;;;;;;;11.95;8.90;;;;;;;11.14;100.00;100726.16;5051031;28;20883;-75
2022/05/01 03:31:08;;;;;;;13.45;9.18;;;;;;;11.26;100.00;100734.25;5048981;28;20207;-75
2022/05/01 03:33:36;;;;;;;12.68;8.23;;;;;;;11.22;100.00;100737.59;5008400;28;20778;-75
2022/05/01 03:36:06;;;;;;;13.23;8.95;;;;;;;11.26;100.00;100733.34;5050851;28;20226;-75
2022/05/01 03:38:35;;;;;;;12.00;8.23;;;;;;;11.27;100.00;100715.19;5050576;28;20242;-75
2022/05/01 03:41:03;;;;;;;11.48;8.60;;;;;;;11.56;100.00;100738.34;5050737;28;20226;-75
2022/05/01 03:43:30;;;;;;;11.32;8.80;;;;;;;11.82;100.00;100727.69;5049816;28;20613;-75
2022/05/01 03:45:57;;;;;;;10.18;7.93;;;;;;;12.39;100.00;100735.72;5049515;28;20204;-75
2022/05/01 03:48:23;;;;;;;9.18;7.53;;;;;;;12.97;100.00;100743.63;5049987;28;20237;-75
2022/05/01 03:50:52;;;;;;;8.77;6.40;;;;;;;13.45;100.00;100751.34;5050385;28;20221;-76
2022/05/01 03:53:21;;;;;;;6.63;6.00;;;;;;;13.85;100.00;100753.59;5050593;28;20824;-76
2022/05/01 03:55:48;;;;;;;6.97;6.22;;;;;;;14.47;100.00;100748.25;5050822;28;20597;-76
2022/05/01 03:58:15;;;;;;;7.03;5.68;;;;;;;14.95;100.00;100745.22;5050775;28;20202;-76
2022/05/01 04:00:44;;;;;;;6.78;5.55;;;;;;;15.30;100.00;100759.41;5050805;28;20246;-76
2022/05/01 04:03:11;;;;;;;5.93;5.28;;;;;;;15.44;100.00;100751.66;5050490;28;20203;-76
2022/05/01 04:05:40;;;;;;;6.05;5.50;;;;;;;15.28;100.00;100750.66;5050762;28;20207;-76
2022/05/01 04:08:08;;;;;;;10.80;5.45;;;;;;;14.81;100.00;100685.03;5050106;28;20191;-76
2022/05/01 04:10:37;;;;;;;7.53;5.82;;;;;;;15.48;100.00;100756.03;5050332;28;20703;-76
2022/05/01 04:13:05;;;;;;;11.35;6.22;;;;;;;15.51;100.00;100740.41;5049876;28;20675;-76
2022/05/01 04:15:32;;;;;;;8.75;5.72;;;;;;;15.26;100.00;100766.34;5015121;28;20711;-76
2022/05/01 04:18:00;;;;;;;7.38;5.05;;;;;;;14.96;100.00;100750.44;5050076;28;20198;-76
2022/05/01 04:20:29;;;;;;;6.78;5.68;;;;;;;14.62;100.00;100706.66;5050635;28;20195;-76
2022/05/01 04:22:56;;;;;;;5.97;5.30;;;;;;;15.18;100.00;100700.09;5050523;28;20192;-76
2022/05/01 04:25:26;;;;;;;6.38;5.75;;;;;;;16.11;100.00;100761.59;5050910;28;20290;-75
2022/05/01 04:27:59;;;;;;;8.77;5.70;;;;;;;16.59;100.00;100754.72;5050666;28;20200;-76
2022/05/01 04:30:27;;;;;;;6.75;5.80;;;;;;;17.20;100.00;100753.88;5051135;28;20230;-77
2022/05/01 04:32:55;;;;;;;8.52;6.03;;;;;;;18.07;96.87;100753.66;5050661;28;20634;-77
2022/05/01 04:35:25;;;;;;;8.75;5.78;;;;;;;19.08;87.06;100750.38;5036852;28;20224;-77
2022/05/01 04:37:53;;;;;;;9.15;6.28;;;;;;;19.39;82.85;100739.56;5035650;28;20219;-77
2022/05/01 04:40:20;;;;;;;16.30;6.70;;;;;;;20.23;79.15;100730.63;5050700;28;20200;-75
2022/05/01 04:42:47;;;;;;;10.20;6.68;;;;;;;20.68;69.08;100751.97;5053432;28;20207;-77
2022/05/01 04:45:15;;;;;;;8.73;6.45;;;;;;;20.42;70.81;100738.31;5059497;28;20608;-76
2022/05/01 04:47:42;;;;;;;8.95;6.00;;;;;;;20.21;69.90;100739.47;5060811;28;20195;-76
2022/05/01 04:50:11;;;;;;;10.18;6.38;;;;;;;19.38;75.16;100716.75;5059469;28;20647;-76
2022/05/01 04:52:39;;;;;;;8.35;6.50;;;;;;;20.20;71.82;100741.22;5056992;28;20213;-75
2022/05/01 04:55:07;;;;;;;11.60;6.68;;;;;;;20.54;69.29;100748.69;5058950;28;20258;-77
2022/05/01 04:57:34;;;;;;;6.68;5.43;;;;;;;20.22;69.26;100733.31;4974116;28;20187;-76
2022/05/01 05:00:01;;;;;;;8.82;5.95;;;;;;;20.93;66.59;100753.31;5060009;28;20207;-77
2022/05/01 05:02:41;;;;;;;10.88;6.60;;;;;;;21.66;64.51;100752.88;5019699;28;20195;-77
2022/05/01 05:05:10;;;;;;;11.68;6.15;;;;;;;21.90;63.58;100735.72;5055321;28;20277;-77
2022/05/01 05:07:37;;;;;;;5.50;5.00;;;;;;;22.04;61.83;100709.91;5057112;28;20249;-77
2022/05/01 05:10:04;;;;;;;9.68;5.55;;;;;;;22.39;62.26;100737.28;5058383;28;20196;-75
2022/05/01 05:12:31;;;;;;;9.45;5.60;;;;;;;22.56;60.11;100725.41;5023471;28;20675;-75
2022/05/01 05:15:00;;;;;;;6.57;5.75;;;;;;;22.43;60.81;100753.06;5056926;28;20215;-75
2022/05/01 05:17:29;;;;;;;7.68;5.50;;;;;;;22.27;60.56;100753.41;5059926;28;21436;-75
2022/05/01 05:19:57;;;;;;;7.10;6.00;;;;;;;22.27;61.45;100758.69;5022764;28;20196;-75
2022/05/01 05:22:24;;;;;;;6.13;5.18;;;;;;;22.05;63.05;100740.66;5055919;28;20203;-75
2022/05/01 05:24:51;;;;;;;5.38;4.70;;;;;;;21.34;65.75;100760.53;5048058;28;20274;-75
2022/05/01 05:27:20;;;;;;;5.57;5.07;;;;;;;20.95;67.82;100761.19;5053199;28;20200;-75
2022/05/01 05:29:47;;;;;;;5.82;5.05;;;;;;;20.12;72.14;100771.19;5052629;28;20656;-75
2022/05/01 05:32:14;;;;;;;7.10;5.40;;;;;;;19.15;81.45;100781.00;5020936;28;20196;-76
2022/05/01 05:34:41;;;;;;;10.80;5.63;;;;;;;18.78;88.42;100779.53;5058465;28;20238;-76
2022/05/01 05:37:09;;;;;;;11.98;6.53;;;;;;;17.95;93.91;100732.72;5061115;28;20199;-78
2022/05/01 05:39:36;;;;;;;9.85;6.32;;;;;;;17.67;100.00;100779.16;5055526;28;20198;-76
2022/05/01 05:42:03;;;;;;;8.63;6.00;;;;;;;17.72;100.00;100773.03;5053176;28;20202;-76
2022/05/01 05:44:30;;;;;;;7.38;6.03;;;;;;;17.77;100.00;100760.78;5053483;28;20207;-75
2022/05/01 05:46:57;;;;;;;7.13;6.40;;;;;;;17.93;100.00;100779.97;5033906;28;20575;-76
2022/05/01 05:49:23;;;;;;;7.57;6.65;;;;;;;17.96;100.00;100764.22;5045770;28;20210;-71
2022/05/01 05:51:50;;;;;;;8.00;7.15;;;;;;;18.08;100.00;100765.91;5017483;28;20199;-73
2022/05/01 05:54:18;;;;;;;11.68;6.72;;;;;;;17.63;100.00;100780.91;5052693;28;20234;-73
2022/05/01 05:56:45;;;;;;;10.07;6.60;;;;;;;17.74;100.00;100771.28;5017691;28;20207;-74
2022/05/01 05:59:12;;;;;;;7.82;7.03;;;;;;;17.57;100.00;100769.56;5052754;28;20207;-73
2022/05/01 06:01:39;;;;;;;8.27;6.72;;;;;;;17.69;100.00;100786.13;5052389;28;20223;-73
2022/05/01 06:04:06;;;;;;;15.43;9.18;;;;;;;17.81;100.00;100766.88;5053149;28;20236;-82
2022/05/01 06:06:33;;;;;;;8.48;6.85;;;;;;;17.92;100.00;100788.69;5052267;28;20196;-75
2022/05/01 06:09:00;;;;;;;9.27;6.53;;;;;;;17.33;100.00;100794.94;5045669;28;20214;-73
2022/05/01 06:11:28;;;;;;;8.07;6.85;;;;;;;17.32;100.00;100797.56;5052628;28;20211;-74
2022/05/01 06:13:55;;;;;;;7.72;6.82;;;;;;;17.28;100.00;100790.56;5052408;28;20749;-74
2022/05/01 06:16:22;;;;;;;9.63;7.50;;;;;;;16.62;100.00;100797.50;5052333;28;20191;-75
2022/05/01 06:18:49;;;;;;;9.70;7.47;;;;;;;16.88;100.00;100791.44;5049898;28;20219;-72
2022/05/01 06:21:15;;;;;;;12.52;7.47;;;;;;;16.64;100.00;100802.75;5049529;28;20207;-76
2022/05/01 06:23:44;;;;;;;8.82;7.20;;;;;;;16.68;100.00;100765.25;5052206;28;20200;-75
2022/05/01 06:26:10;;;;;;;11.07;7.40;;;;;;;16.90;100.00;100801.06;5052643;28;20214;-76
2022/05/01 06:28:39;;;;;;;11.98;7.40;;;;;;;17.25;100.00;100796.69;5052100;28;20210;-74
2022/05/01 06:31:06;;;;;;;12.57;6.72;;;;;;;16.97;100.00;100784.47;5052023;28;20204;-75
2022/05/01 06:33:35;;;;;;;10.13;7.70;;;;;;;17.15;100.00;100804.56;5051092;28;20199;-75
2022/05/01 06:36:04;;;;;;;9.52;7.80;;;;;;;17.31;100.00;100799.31;5051841;28;20321;-76
2022/05/01 06:38:31;;;;;;;10.05;8.02;;;;;;;17.45;100.00;100793.16;5052881;28;20204;-76
2022/05/01 06:40:58;;;;;;;8.85;7.45;;;;;;;17.64;100.00;100810.66;5050508;28;20196;-78
2022/05/01 06:43:27;;;;;;;8.55;7.65;;;;;;;17.72;100.00;100814.13;5052302;28;20207;-80
2022/05/01 06:45:55;;;;;;;10.95;7.72;;;;;;;17.34;100.00;100786.19;5053155;28;20253;-83
2022/05/01 06:48:22;;;;;;;12.75;7.43;;;;;;;17.70;100.00;100805.38;5051008;28;20210;-81
2022/05/01 06:50:49;;;;;;;14.25;8.15;;;;;;;17.77;100.00;100800.13;5050555;28;20198;-80
2022/05/01 06:53:16;;;;;;;8.52;7.45;;;;;;;17.39;100.00;100820.28;5050729;28;20202;-83
2022/05/01 06:55:43;;;;;;;12.32;7.72;;;;;;;16.82;100.00;100759.13;5049150;28;20327;-81
2022/05/01 06:58:10;;;;;;;9.75;7.53;;;;;;;17.48;100.00;100816.78;5049903;28;20208;-82
2022/05/01 07:00:37;;;;;;;11.57;7.75;;;;;;;17.48;100.00;100790.56;5048414;28;20207;-81
2022/05/01 07:03:05;;;;;;;9.63;7.53;;;;;;;17.98;100.00;100817.53;5052089;28;20231;-82
2022/05/01 07:05:32;;;;;;;12.57;8.75;;;;;;;17.87;100.00;100793.13;5051051;28;20210;-74
2022/05/01 07:07:59;;;;;;;18.30;10.32;;;;;;;17.94;100.00;100815.84;5051490;28;20203;-74
2022/05/01 07:10:26;;;;;;;8.27;7.30;;;;;;;18.04;100.00;100800.91;5051672;28;20686;-83
2022/05/01 07:12:52;;;;;;;10.32;7.22;;;;;;;17.99;100.00;100779.94;5045959;28;20781;-75
2022/05/01 07:15:19;;;;;;;9.85;8.15;;;;;;;17.76;100.00;100784.41;5051498;28;20222;-77
2022/05/01 07:17:46;;;;;;;9.38;7.75;;;;;;;18.00;100.00;100792.19;5042183;28;20200;-76
2022/05/01 07:20:14;;;;;;;12.70;8.05;;;;;;;18.11;100.00;100814.00;5031724;28;20208;-77
2022/05/01 07:22:41;;;;;;;11.02;7.72;;;;;;;18.07;100.00;100801.78;5031352;28;20211;-76
2022/05/01 07:25:08;;;;;;;8.63;7.28;;;;;;;18.36;100.00;100811.28;5049068;28;20257;-77
2022/05/01 07:27:35;;;;;;;10.13;7.18;;;;;;;18.28;100.00;100754.41;5051206;28;20200;-76
2022/05/01 07:30:02;;;;;;;8.32;7.07;;;;;;;18.14;100.00;100766.75;5051062;28;20203;-77
2022/05/01 07:32:28;;;;;;;9.88;6.78;;;;;;;18.87;100.00;100813.59;5050963;28;20592;-73
2022/05/01 07:34:56;;;;;;;10.55;7.28;;;;;;;18.89;100.00;100790.81;5015759;28;20211;-75
2022/05/01 07:37:26;;;;;;;7.43;6.05;;;;;;;19.27;97.89;100814.16;5051044;28;20199;-76
2022/05/01 07:39:54;;;;;;;6.00;5.32;;;;;;;19.22;91.77;100803.72;5050952;28;20729;-76
2022/05/01 07:42:23;;;;;;;9.82;5.18;;;;;;;19.27;78.91;100812.41;5049650;28;20222;-77
2022/05/01 07:44:49;;;;;;;4.18;3.88;;;;;;;18.86;81.33;100785.59;5049924;28;20290;-77
2022/05/01 07:47:16;;;;;;;6.38;4.50;;;;;;;18.91;84.19;100810.06;5051217;28;20203;-76
2022/05/01 07:49:43;;;;;;;4.95;4.50;;;;;;;18.86;84.38;100796.09;5050455;28;20206;-74
2022/05/01 07:52:10;;;;;;;3.05;2.80;;;;;;;18.52;70.58;100816.47;5052667;28;20211;-74
2022/05/01 07:54:38;;;;;;;5.70;3.50;;;;;;;18.79;72.18;100794.41;4998718;28;20231;-75
2022/05/01 07:57:07;;;;;;;4.57;2.97;;;;;;;18.14;70.18;100821.88;5050390;28;20704;-75
2022/05/01 07:59:33;;;;;;;4.82;3.10;;;;;;;18.58;72.99;100813.81;5050616;28;20687;-75
2022/05/01 08:02:00;;;;;;;3.15;2.90;;;;;;;18.51;68.66;100820.00;5050270;28;20702;-76
2022/05/01 08:04:29;;;;;;;3.38;2.97;;;;;;;18.65;67.52;100819.91;5048395;28;20203;-74
2022/05/01 08:06:57;;;;;;;3.30;3.00;;;;;;;18.56;65.91;100801.56;5050478;28;20586;-76
2022/05/01 08:09:24;;;;;;;3.70;3.40;;;;;;;18.85;69.58;100810.13;5051021;28;20663;-76
2022/05/01 08:11:52;;;;;;;5.07;4.57;;;;;;;18.90;70.24;100810.97;5050562;28;20195;-75
2022/05/01 08:14:20;;;;;;;3.38;3.17;;;;;;;18.67;68.21;100815.50;5015664;28;20191;-76
2022/05/01 08:16:47;;;;;;;3.17;2.97;;;;;;;18.84;66.90;100803.13;5050339;28;20207;-74
2022/05/01 08:21:58;;;;;;;5.03;3.17;;;;;;;19.37;57.38;100804.47;5050179;28;20206;-73
2022/05/01 08:24:25;;;;;;;3.53;3.22;;;;;;;19.35;58.98;100780.78;5050949;28;20195;-75
2022/05/01 08:26:53;;;;;;;3.00;2.70;;;;;;;19.13;58.94;100798.50;5048080;28;20199;-74
2022/05/01 08:29:20;;;;;;;3.03;2.70;;;;;;;19.10;60.18;100810.81;5050317;28;20203;-74
2022/05/01 08:31:47;;;;;;;3.45;3.15;;;;;;;19.02;62.85;100776.69;5049668;28;20199;-73
2022/05/01 08:34:14;;;;;;;2.58;2.35;;;;;;;18.93;60.78;100761.00;5050061;28;20564;-74
2022/05/01 08:36:41;;;;;;;4.50;2.85;;;;;;;19.25;60.78;100795.78;5031897;28;20321;-74
2022/05/01 08:39:09;;;;;;;3.25;3.05;;;;;;;19.23;61.49;100804.56;5050345;28;20195;-74
2022/05/01 08:41:36;;;;;;;7.38;2.50;;;;;;;18.94;59.52;100775.88;5050066;28;20683;-74
2022/05/01 08:44:05;;;;;;;4.25;2.60;;;;;;;19.29;58.63;100797.50;5050331;28;20234;-74
2022/05/01 08:47:14;;;;;;;2.20;2.00;;;;;;;19.52;55.96;100796.44;5050007;28;20207;-74
2022/05/01 08:49:41;;;;;;;3.05;2.25;;;;;;;19.46;55.69;100799.13;5007869;28;20756;-75
2022/05/01 08:52:08;;;;;;;2.40;2.20;;;;;;;19.15;55.06;100767.84;4958750;28;20201;-75
2022/05/01 08:54:37;;;;;;;4.13;2.90;;;;;;;19.25;57.91;100803.69;4959085;28;20320;-73
2022/05/01 08:57:05;;;;;;;3.88;2.50;;;;;;;19.24;56.78;100799.28;5010170;28;20664;-76
2022/05/01 08:59:34;;;;;;;2.60;2.20;;;;;;;19.57;53.88;100792.88;5011226;28;20533;-72
2022/05/01 09:02:00;;;;;;;2.55;2.40;;;;;;;19.46;55.60;100799.13;5011133;28;20255;-74
2022/05/01 09:04:28;;;;;;;7.53;2.70;;;;;;;19.62;55.45;100796.31;4995200;28;20208;-74
2022/05/01 09:06:55;;;;;;;3.28;2.42;;;;;;;19.69;53.44;100784.84;4991355;28;20683;-75
2022/05/01 09:09:23;;;;;;;2.08;1.90;;;;;;;19.65;52.56;100800.69;4991580;28;20209;-74
2022/05/01 09:14:38;;;;;;;2.75;2.55;;;;;;;19.75;51.23;100776.03;4991538;28;20200;-74
2022/05/01 09:17:18;;;;;;;2.40;2.20;;;;;;;19.87;51.39;100788.19;4991483;28;20662;-75
2022/05/01 09:19:47;;;;;;;3.10;2.80;;;;;;;19.67;51.64;100780.50;4991419;28;20193;-74
2022/05/01 09:22:14;;;;;;;4.10;2.13;;;;;;;19.77;51.48;100769.84;4990964;28;20205;-75
2022/05/01 09:24:41;;;;;;;2.25;2.15;;;;;;;19.85;52.51;100775.03;5003241;28;20265;-75
2022/05/01 09:27:24;;;;;;;2.60;2.40;;;;;;;20.27;52.09;100777.16;5033180;28;20204;-77
2022/05/01 09:30:08;;;;;;;2.22;2.10;;;;;;;19.93;49.18;100748.63;5032863;28;20200;-78
2022/05/01 09:32:38;;;;;;;4.63;2.17;;;;;;;19.10;52.07;100693.38;5032673;28;20242;-70
2022/05/01 09:35:06;;;;;;;4.57;2.40;;;;;;;19.97;50.64;100759.09;5033026;28;20734;-68
2022/05/01 09:37:33;;;;;;;4.93;2.13;;;;;;;20.22;50.81;100746.47;5032765;28;20204;-71
2022/05/01 09:40:00;;;;;;;3.35;2.35;;;;;;;20.32;50.75;100765.69;5032340;28;20211;-71
2022/05/01 09:42:29;;;;;;;3.65;2.10;;;;;;;20.08;49.66;100764.22;5032087;28;20200;-71
2022/05/01 09:45:09;;;;;;;2.40;2.20;;;;;;;20.25;52.78;100720.97;5032358;28;20206;-76
2022/05/01 09:47:37;;;;;;;2.15;1.90;;;;;;;20.33;48.84;100754.25;5032308;28;20207;-71
2022/05/01 09:50:05;;;;;;;3.03;1.83;;;;;;;20.38;47.48;100760.31;5032624;28;20231;-74
2022/05/01 09:52:57;;;;;;;2.47;2.20;;;;;;;20.55;47.91;100750.41;5045550;28;20203;-71
2022/05/01 09:55:24;;;;;;;1.98;1.83;;;;;;;20.70;47.11;100731.72;5050361;28;20242;-70
2022/05/01 09:58:01;;;;;;;2.72;2.17;;;;;;;20.50;50.13;100728.53;5051354;28;20210;-71
2022/05/01 10:00:41;;;;;;;2.60;2.40;;;;;;;20.45;48.53;100744.41;5052855;28;20207;-72
2022/05/01 10:03:22;;;;;;;4.47;2.13;;;;;;;20.56;49.59;100749.50;5051934;28;20227;-74
2022/05/01 10:05:50;;;;;;;4.10;3.10;;;;;;;20.64;50.68;100740.59;5052645;28;20199;-70
2022/05/01 10:08:18;;;;;;;2.33;1.90;;;;;;;20.71;50.46;100744.00;5052137;28;20655;-70
2022/05/01 10:10:46;;;;;;;4.57;2.10;;;;;;;20.35;50.26;100736.66;5053002;28;20711;-72
2022/05/01 10:13:14;;;;;;;2.33;2.15;;;;;;;20.43;51.50;100733.03;5052313;28;20230;-73
2022/05/01 10:15:43;;;;;;;2.33;2.13;;;;;;;20.59;50.57;100728.38;5052160;28;20239;-71
2022/05/01 10:18:12;;;;;;;2.70;2.50;;;;;;;20.46;47.92;100729.47;5052387;28;20226;-75
2022/05/01 10:20:42;;;;;;;2.33;2.20;;;;;;;20.76;47.78;100729.84;5017170;28;20226;-71
2022/05/01 10:23:10;;;;;;;1.63;1.50;;;;;;;20.35;47.33;100726.13;5050279;28;20195;-74
2022/05/01 10:25:41;;;;;;;3.33;2.38;;;;;;;20.76;48.12;100721.09;5052510;28;20203;-71
2022/05/01 10:28:19;;;;;;;2.10;2.00;;;;;;;20.21;48.87;100649.91;5049948;28;20218;-75
2022/05/01 10:33:55;;;;;;;7.30;2.42;;;;;;;20.57;48.72;100682.75;5044267;28;20219;-73
2022/05/01 10:36:52;;;;;;;2.00;1.90;;;;;;;20.67;49.62;100710.69;5051324;28;20234;-74
2022/05/01 10:39:20;;;;;;;6.32;2.38;;;;;;;20.57;50.31;100711.72;5017087;28;20223;-75
2022/05/01 10:41:48;;;;;;;3.05;2.40;;;;;;;20.75;50.80;100706.16;5051959;28;20561;-73
2022/05/01 10:44:28;;;;;;;2.17;2.08;;;;;;;20.64;51.38;100697.56;5054350;28;20198;-73
2022/05/01 10:47:04;;;;;;;3.33;2.75;;;;;;;20.50;51.62;100686.38;5051537;28;20698;-75
2022/05/01 10:49:37;;;;;;;3.40;3.10;;;;;;;21.14;50.39;100679.16;5016910;28;20200;-76
2022/05/01 10:52:19;;;;;;;4.35;2.72;;;;;;;20.99;49.41;100679.38;5054291;28;20191;-75
2022/05/01 10:54:54;;;;;;;3.97;2.45;;;;;;;21.30;49.33;100676.22;5048282;28;20235;-72
2022/05/01 10:57:23;;;;;;;3.17;2.88;;;;;;;21.57;47.31;100671.25;5056633;28;20215;-74
2022/05/01 11:00:05;;;;;;;3.13;2.15;;;;;;;21.80;45.34;100667.25;5051371;28;20333;-75
2022/05/01 11:02:38;;;;;;;2.03;1.92;;;;;;;21.60;45.54;100649.19;4990529;28;20227;-74
2022/05/01 11:05:08;;;;;;;1.67;1.58;;;;;;;21.12;43.58;100654.53;5054855;28;20285;-70
2022/05/01 11:07:37;;;;;;;2.33;2.17;;;;;;;21.06;42.56;100659.91;5015730;28;20657;-73
2022/05/01 11:10:06;;;;;;;1.88;1.77;;;;;;;21.13;43.24;100656.28;5031682;28;20197;-72
2022/05/01 11:12:35;;;;;;;6.30;1.73;;;;;;;21.49;43.88;100649.44;5048572;28;20265;-72
2022/05/01 11:15:05;;;;;;;2.17;1.60;;;;;;;21.10;41.31;100659.00;5051222;28;20210;-73
2022/05/01 11:17:57;;;;;;;3.08;1.85;;;;;;;21.43;41.89;100638.13;5051797;28;20696;-73
2022/05/01 11:20:34;;;;;;;1.73;1.63;;;;;;;21.56;42.38;100642.25;5051522;28;20199;-72
2022/05/01 11:23:31;;;;;;;2.03;1.60;;;;;;;21.92;43.20;100636.22;5050803;28;20195;-72
2022/05/01 11:26:18;;;;;;;3.33;1.95;;;;;;;21.74;43.55;100641.84;4957259;28;20190;-73
2022/05/01 11:28:50;;;;;;;1.90;1.80;;;;;;;21.86;41.46;100628.41;4989822;28;20210;-73
2022/05/01 11:31:45;;;;;;;2.13;1.80;;;;;;;22.02;39.17;100616.59;4989019;28;20208;-73
2022/05/01 11:34:38;;;;;;;1.92;1.73;;;;;;;22.06;39.23;100623.56;4988820;28;20293;-73
2022/05/01 11:37:07;;;;;;;2.00;1.70;;;;;;;21.90;38.34;100622.19;4989349;28;20675;-73
2022/05/01 11:40:16;;;;;;;1.67;1.58;;;;;;;21.72;38.82;100614.63;4989675;28;20674;-73
2022/05/01 11:42:43;;;;;;;3.33;1.73;;;;;;;21.61;39.92;100592.88;4989215;28;20240;-74
2022/05/01 11:45:11;;;;;;;2.80;1.80;;;;;;;21.95;39.89;100607.09;4989406;28;20205;-72
2022/05/01 11:47:38;;;;;;;2.72;1.55;;;;;;;22.20;39.81;100595.03;4957369;28;20666;-72